Time;durP1;ratioP1;P1;durP2;ratioP2;P2;SDS_P1;SDS_P2;PMS_P1;PMS_P2;Temp;Humidity;BMP_temperature;BMP_pressure;BME280_temperature;BME280_humidity;BME280_pressure;Samples;Min_cycle;Max_cycle;Signal;HPM_P1;HPM_P2
2024/01/09 00:00:16;;;;;;;6.63;2.00;;;-3.00;99.90;;;;;;5060425;28;20044;-60
2024/01/09 00:02:42;;;;;;;7.32;2.83;;;-2.80;99.90;;;;;;5060066;28;20114;-60
2024/01/09 00:05:08;;;;;;;7.05;2.83;;;-2.70;99.90;;;;;;5076344;28;20055;-60
2024/01/09 00:07:34;;;;;;;7.68;2.25;;;-3.10;99.90;;;;;;5059533;28;20512;-59
2024/01/09 00:09:59;;;;;;;7.97;2.22;;;-3.10;99.90;;;;;;5042914;28;20037;-60
2024/01/09 00:12:25;;;;;;;6.00;2.20;;;-3.10;99.90;;;;;;5077768;28;20063;-60
2024/01/09 00:14:51;;;;;;;6.63;2.47;;;-2.90;99.90;;;;;;5059578;28;20041;-60
2024/01/09 00:17:16;;;;;;;7.57;2.50;;;-3.20;99.90;;;;;;5077927;28;20041;-59
2024/01/09 00:19:42;;;;;;;6.03;2.10;;;-2.80;99.90;;;;;;5077904;28;20044;-59
2024/01/09 00:22:08;;;;;;;7.00;2.33;;;-2.70;99.90;;;;;;5078359;28;20036;-57
2024/01/09 00:24:33;;;;;;;6.68;2.40;;;-3.20;99.90;;;;;;5059855;28;20064;-60
2024/01/09 00:26:59;;;;;;;5.47;2.17;;;-3.20;99.90;;;;;;5059310;28;20055;-60
2024/01/09 00:29:24;;;;;;;6.00;2.22;;;-2.90;99.90;;;;;;5026418;28;20048;-58
2024/01/09 00:31:50;;;;;;;7.63;2.17;;;-3.00;99.90;;;;;;5042896;28;20067;-60
2024/01/09 00:34:16;;;;;;;6.05;2.03;;;-2.90;99.90;;;;;;5059457;28;20127;-60
2024/01/09 00:36:43;;;;;;;6.55;1.98;;;-3.30;99.90;;;;;;5078087;28;20059;-60
2024/01/09 00:39:10;;;;;;;5.95;1.80;;;-3.20;99.90;;;;;;5062844;28;20044;-60
2024/01/09 00:41:35;;;;;;;6.80;2.30;;;-2.80;99.90;;;;;;5063376;28;20076;-60
2024/01/09 00:44:01;;;;;;;5.82;2.00;;;-3.10;99.90;;;;;;5080968;28;20059;-59
2024/01/09 00:46:28;;;;;;;5.50;2.08;;;-3.10;99.90;;;;;;5080846;28;20044;-60
2024/01/09 00:48:53;;;;;;;6.07;2.13;;;-3.30;99.90;;;;;;5081001;28;20117;-60
2024/01/09 00:51:19;;;;;;;7.90;2.72;;;-3.00;99.90;;;;;;5062873;28;20042;-60
2024/01/09 00:53:45;;;;;;;6.97;2.50;;;-3.10;99.90;;;;;;5080884;28;20408;-60
2024/01/09 00:56:10;;;;;;;6.95;2.40;;;-3.10;99.90;;;;;;5062987;28;20070;-58
2024/01/09 00:58:36;;;;;;;8.15;2.00;;;-3.30;99.90;;;;;;5081215;28;20044;-59
2024/01/09 01:01:02;;;;;;;9.45;2.67;;;-3.30;99.90;;;;;;5079226;28;20048;-60
2024/01/09 01:03:29;;;;;;;7.30;2.20;;;-3.00;99.90;;;;;;5080596;28;20059;-60
2024/01/09 01:05:55;;;;;;;10.43;2.40;;;-3.10;99.90;;;;;;5080476;28;20078;-60
2024/01/09 01:08:21;;;;;;;6.60;2.22;;;-3.40;99.90;;;;;;5080498;28;20045;-60
2024/01/09 01:10:47;;;;;;;6.50;2.30;;;-3.30;99.90;;;;;;5080860;28;20406;-60
2024/01/09 01:13:13;;;;;;;8.88;2.55;;;-3.10;99.90;;;;;;5080689;28;20044;-59
2024/01/09 01:15:39;;;;;;;6.32;2.10;;;-3.30;99.90;;;;;;5080898;28;20106;-59
2024/01/09 01:18:05;;;;;;;5.95;1.80;;;-3.00;99.90;;;;;;5080247;28;20116;-59
2024/01/09 01:20:30;;;;;;;8.35;2.53;;;-3.50;99.90;;;;;;5079900;28;20048;-60
2024/01/09 01:22:56;;;;;;;6.53;2.20;;;-3.10;99.90;;;;;;5080005;28;20068;-59
2024/01/09 01:25:22;;;;;;;5.97;2.55;;;-3.10;99.90;;;;;;5062042;28;20056;-59
2024/01/09 01:27:47;;;;;;;6.82;2.38;;;-3.50;99.90;;;;;;5080112;28;20044;-60
2024/01/09 01:30:13;;;;;;;4.72;1.88;;;-3.10;99.90;;;;;;5080282;28;20047;-60
2024/01/09 01:32:39;;;;;;;6.72;2.05;;;-3.40;99.90;;;;;;5080336;28;20044;-60
2024/01/09 01:35:05;;;;;;;5.95;1.88;;;-3.20;99.90;;;;;;5080245;28;20048;-60
2024/01/09 01:37:31;;;;;;;6.35;2.22;;;-3.60;99.90;;;;;;5061907;28;20052;-59
2024/01/09 01:39:56;;;;;;;8.15;2.22;;;-3.20;99.90;;;;;;5061761;28;20041;-60
2024/01/09 01:42:22;;;;;;;6.10;1.95;;;-3.60;99.90;;;;;;5080041;28;20060;-60
2024/01/09 01:44:48;;;;;;;5.93;1.92;;;-3.60;99.90;;;;;;5078530;28;20047;-60
2024/01/09 01:47:14;;;;;;;7.07;1.95;;;-3.20;99.90;;;;;;5080018;28;20045;-60
2024/01/09 01:49:41;;;;;;;6.60;2.47;;;-3.60;99.90;;;;;;5078238;28;20503;-60
2024/01/09 01:52:07;;;;;;;5.45;2.13;;;-3.60;99.90;;;;;;5062282;28;20334;-60
2024/01/09 01:54:37;;;;;;;5.43;2.10;;;-3.30;99.90;;;;;;5079646;28;20733;-59
2024/01/09 01:57:04;;;;;;;6.43;1.98;;;-3.70;99.90;;;;;;5079696;28;20090;-60
2024/01/09 01:59:32;;;;;;;6.10;1.88;;;-3.40;99.90;;;;;;5079501;28;20131;-60
2024/01/09 02:01:59;;;;;;;7.38;2.80;;;-3.30;99.90;;;;;;5079403;28;20067;-60
2024/01/09 02:04:25;;;;;;;8.38;2.00;;;-3.70;99.90;;;;;;5079374;28;20055;-60
2024/01/09 02:06:51;;;;;;;7.72;2.45;;;-3.50;99.90;;;;;;5061816;28;20078;-60
2024/01/09 02:09:18;;;;;;;6.18;2.08;;;-3.70;99.90;;;;;;5079583;28;20036;-59
2024/01/09 02:11:46;;;;;;;7.90;2.28;;;-3.40;99.90;;;;;;5061547;28;20052;-60
2024/01/09 02:14:12;;;;;;;6.35;2.42;;;-3.50;99.90;;;;;;5061575;28;20076;-60
2024/01/09 02:16:38;;;;;;;7.10;2.03;;;-3.80;99.90;;;;;;5078049;28;20080;-60
2024/01/09 02:19:03;;;;;;;7.25;1.90;;;-3.80;99.90;;;;;;5079095;28;20068;-60
2024/01/09 02:21:29;;;;;;;7.07;2.45;;;-3.50;99.90;;;;;;5079344;28;20040;-60
2024/01/09 02:23:55;;;;;;;7.35;2.20;;;-3.80;99.90;;;;;;5061799;28;20048;-60
2024/01/09 02:26:23;;;;;;;7.18;2.22;;;-4.00;99.90;;;;;;5061518;28;20040;-59
2024/01/09 02:28:54;;;;;;;7.05;2.08;;;-3.90;99.90;;;;;;5079182;28;20048;-60
2024/01/09 02:31:20;;;;;;;8.95;2.10;;;-3.60;99.90;;;;;;5078987;28;20044;-59
2024/01/09 02:33:46;;;;;;;6.68;2.67;;;-3.60;99.90;;;;;;5061087;28;20527;-60
2024/01/09 02:36:12;;;;;;;7.63;2.40;;;-3.60;99.90;;;;;;5079005;28;20110;-60
2024/01/09 02:38:38;;;;;;;7.00;2.20;;;-3.90;99.90;;;;;;5061250;28;20044;-60
2024/01/09 02:41:05;;;;;;;6.18;2.05;;;-3.60;99.90;;;;;;5079337;28;20044;-60
2024/01/09 02:43:30;;;;;;;6.38;2.28;;;-4.00;99.90;;;;;;5060994;28;20484;-60
2024/01/09 02:45:56;;;;;;;6.22;2.10;;;-3.90;99.90;;;;;;5060990;28;20044;-60
2024/01/09 02:48:22;;;;;;;6.05;2.10;;;-3.60;99.90;;;;;;5078732;28;20157;-60
2024/01/09 02:50:47;;;;;;;6.65;2.35;;;-4.00;99.90;;;;;;5060725;28;20113;-60
2024/01/09 02:53:13;;;;;;;5.63;1.77;;;-3.90;99.90;;;;;;5060947;28;20048;-60
2024/01/09 02:55:39;;;;;;;7.18;2.22;;;-4.00;99.90;;;;;;5077607;28;20501;-60
2024/01/09 02:58:04;;;;;;;6.15;2.45;;;-3.60;99.90;;;;;;5079171;28;20131;-60
2024/01/09 03:00:30;;;;;;;6.75;2.00;;;-3.60;99.90;;;;;;5078882;28;20040;-60
2024/01/09 03:02:56;;;;;;;7.68;2.00;;;-4.10;99.90;;;;;;5078710;28;20052;-60
2024/01/09 03:05:22;;;;;;;8.68;2.95;;;-3.60;99.90;;;;;;5060428;28;20515;-60
2024/01/09 03:07:48;;;;;;;6.78;2.38;;;-4.00;99.90;;;;;;5078355;28;20048;-60
2024/01/09 03:10:14;;;;;;;6.05;2.20;;;-4.00;99.90;;;;;;5077375;28;20493;-60
2024/01/09 03:12:39;;;;;;;6.18;2.40;;;-3.80;99.90;;;;;;5044210;28;20322;-60
2024/01/09 03:15:06;;;;;;;9.75;2.85;;;-3.70;99.90;;;;;;5079018;28;20063;-59
2024/01/09 03:17:31;;;;;;;6.85;1.98;;;-4.00;99.90;;;;;;5060735;28;20040;-60
2024/01/09 03:19:57;;;;;;;6.20;2.47;;;-4.10;99.90;;;;;;5044131;28;20047;-59
2024/01/09 03:22:22;;;;;;;7.57;2.42;;;-4.00;99.90;;;;;;5043811;28;20047;-60
2024/01/09 03:24:48;;;;;;;6.90;1.95;;;-3.70;99.90;;;;;;5043702;28;20055;-60
2024/01/09 03:27:14;;;;;;;5.18;2.05;;;-3.60;99.90;;;;;;5060230;28;20098;-60
2024/01/09 03:29:40;;;;;;;5.47;1.90;;;-4.10;99.90;;;;;;5078539;28;20170;-60
2024/01/09 03:32:06;;;;;;;6.72;2.40;;;-3.90;99.90;;;;;;5078659;28;20066;-60
2024/01/09 03:34:31;;;;;;;8.60;1.98;;;-4.10;99.90;;;;;;5078442;28;20055;-60
2024/01/09 03:36:57;;;;;;;6.68;2.40;;;-3.70;99.90;;;;;;5060512;28;20048;-60
2024/01/09 03:39:23;;;;;;;5.85;1.88;;;-3.90;99.90;;;;;;5027065;28;20036;-60
2024/01/09 03:41:49;;;;;;;5.97;2.08;;;-3.80;99.90;;;;;;5078346;28;20044;-61
2024/01/09 03:44:14;;;;;;;7.88;1.98;;;-4.10;99.90;;;;;;5043668;28;20044;-59
2024/01/09 03:46:40;;;;;;;6.28;2.05;;;-3.70;99.90;;;;;;5077965;28;20048;-60
2024/01/09 03:49:06;;;;;;;8.05;2.10;;;-4.10;99.90;;;;;;5078475;28;20050;-60
2024/01/09 03:51:31;;;;;;;5.40;1.90;;;-4.20;99.90;;;;;;5078375;28;20113;-60
2024/01/09 03:53:57;;;;;;;6.78;2.22;;;-3.80;99.90;;;;;;5076952;28;20081;-60
2024/01/09 03:56:26;;;;;;;7.18;2.72;;;-4.10;99.90;;;;;;5076332;28;20040;-60
2024/01/09 03:58:52;;;;;;;6.40;2.10;;;-4.30;99.90;;;;;;5059942;28;20040;-60
2024/01/09 04:01:18;;;;;;;6.97;2.13;;;-3.90;99.90;;;;;;5077919;28;20048;-60
2024/01/09 04:03:45;;;;;;;6.60;1.90;;;-4.00;99.90;;;;;;5077937;28;20053;-60
2024/01/09 04:06:11;;;;;;;6.88;1.95;;;-4.10;99.90;;;;;;5077949;28;20047;-60
2024/01/09 04:08:37;;;;;;;7.15;2.35;;;-3.90;99.90;;;;;;5078208;28;20096;-60
2024/01/09 04:11:04;;;;;;;7.57;2.42;;;-3.90;99.90;;;;;;5078348;28;20071;-60
2024/01/09 04:13:29;;;;;;;6.22;1.98;;;-3.90;99.90;;;;;;5062356;28;20057;-60
2024/01/09 04:15:55;;;;;;;6.20;2.00;;;-4.20;99.90;;;;;;5081714;28;20043;-60
2024/01/09 04:18:21;;;;;;;6.90;2.45;;;-3.90;99.90;;;;;;5063839;28;20032;-60
2024/01/09 04:20:46;;;;;;;6.05;2.10;;;-4.10;99.90;;;;;;5081737;28;20041;-60
2024/01/09 04:23:12;;;;;;;6.50;2.35;;;-4.40;99.90;;;;;;5081640;28;20040;-59
2024/01/09 04:25:38;;;;;;;6.13;2.40;;;-4.20;99.90;;;;;;5081784;28;20048;-59
2024/01/09 04:28:04;;;;;;;6.30;2.38;;;-4.20;99.90;;;;;;5081841;28;20048;-60
2024/01/09 04:30:29;;;;;;;7.82;2.33;;;-4.40;99.90;;;;;;5081675;28;20101;-59
2024/01/09 04:32:55;;;;;;;4.45;1.77;;;-4.40;99.90;;;;;;5081892;28;20047;-59
2024/01/09 04:35:20;;;;;;;7.68;2.17;;;-4.30;99.90;;;;;;5046550;28;20504;-59
2024/01/09 04:37:46;;;;;;;7.35;2.75;;;-4.40;99.90;;;;;;5081370;28;20050;-60
2024/01/09 04:40:12;;;;;;;9.48;2.70;;;-4.00;99.90;;;;;;5063188;28;20044;-59
2024/01/09 04:42:37;;;;;;;8.25;2.80;;;-4.30;99.90;;;;;;5063257;28;20037;-60
2024/01/09 04:45:03;;;;;;;6.80;2.00;;;-4.30;99.90;;;;;;5081482;28;20051;-60
2024/01/09 04:47:29;;;;;;;7.78;2.35;;;-4.00;99.90;;;;;;5047003;28;20052;-60
2024/01/09 04:49:55;;;;;;;9.50;2.85;;;-4.00;99.90;;;;;;5081353;28;20033;-59
2024/01/09 04:52:21;;;;;;;7.00;2.42;;;-4.40;99.90;;;;;;5063089;28;20041;-60
2024/01/09 04:54:47;;;;;;;7.82;2.60;;;-4.40;99.90;;;;;;5046316;28;20075;-60
2024/01/09 04:57:12;;;;;;;6.38;2.70;;;-4.20;99.90;;;;;;5080992;28;20622;-60
2024/01/09 04:59:41;;;;;;;6.53;2.40;;;-4.50;99.90;;;;;;5062743;28;20550;-60
2024/01/09 05:02:06;;;;;;;9.75;3.38;;;-4.40;99.90;;;;;;5081011;28;20055;-59
2024/01/09 05:04:32;;;;;;;10.35;2.97;;;-4.10;99.90;;;;;;5080893;28;20104;-59
2024/01/09 05:06:58;;;;;;;6.60;2.80;;;-4.60;99.90;;;;;;5081182;28;20047;-59
2024/01/09 05:09:24;;;;;;;9.65;3.38;;;-4.50;99.90;;;;;;5062847;28;20116;-60
2024/01/09 05:11:50;;;;;;;8.57;3.10;;;-4.50;99.90;;;;;;5080766;28;20036;-60
2024/01/09 05:14:16;;;;;;;7.80;2.70;;;-4.10;99.90;;;;;;5062438;28;20113;-60
2024/01/09 05:16:41;;;;;;;7.75;2.78;;;-4.40;99.90;;;;;;5062769;28;20063;-60
2024/01/09 05:19:07;;;;;;;7.10;2.75;;;-4.10;99.90;;;;;;5062730;28;20481;-60
2024/01/09 05:21:33;;;;;;;7.47;2.67;;;-4.60;99.90;;;;;;5080986;28;20095;-60
2024/01/09 05:23:58;;;;;;;9.02;2.80;;;-4.50;99.90;;;;;;5061707;28;20045;-60
2024/01/09 05:26:24;;;;;;;6.13;2.40;;;-4.10;99.90;;;;;;5080410;28;20047;-60
2024/01/09 05:28:50;;;;;;;8.05;3.10;;;-4.50;99.90;;;;;;5080148;28;20054;-60
2024/01/09 05:31:15;;;;;;;9.55;3.35;;;-4.20;99.90;;;;;;5078848;28;20060;-60
2024/01/09 05:33:41;;;;;;;7.47;2.83;;;-4.50;99.90;;;;;;5080209;28;20109;-60
2024/01/09 05:36:08;;;;;;;8.20;3.15;;;-4.60;99.90;;;;;;5079660;28;20032;-58
2024/01/09 05:38:34;;;;;;;8.43;2.92;;;-4.60;99.90;;;;;;5080551;28;20037;-60
2024/01/09 05:40:59;;;;;;;8.48;2.97;;;-4.20;99.90;;;;;;5062606;28;20081;-60
2024/01/09 05:43:25;;;;;;;6.80;3.60;;;-4.60;99.90;;;;;;5062435;28;20104;-59
2024/01/09 05:45:51;;;;;;;9.70;3.17;;;-4.50;99.90;;;;;;5080292;28;20070;-60
2024/01/09 05:48:16;;;;;;;6.45;3.13;;;-4.40;99.90;;;;;;5079800;28;20085;-60
2024/01/09 05:50:42;;;;;;;7.25;2.80;;;-4.70;99.90;;;;;;5061551;28;20059;-60
2024/01/09 05:53:08;;;;;;;6.53;2.90;;;-4.70;99.90;;;;;;5045298;28;20068;-59
2024/01/09 05:55:34;;;;;;;8.50;3.47;;;-4.30;99.90;;;;;;5061918;28;20044;-59
2024/01/09 05:58:00;;;;;;;7.10;3.03;;;-4.60;99.90;;;;;;5061842;28;20049;-60
2024/01/09 06:00:26;;;;;;;6.82;3.08;;;-4.70;99.90;;;;;;5062056;28;20044;-59
2024/01/09 06:02:51;;;;;;;8.07;2.53;;;-4.80;99.90;;;;;;5061706;28;20051;-60
2024/01/09 06:05:17;;;;;;;9.52;3.13;;;-4.30;99.90;;;;;;5079376;28;20078;-60
2024/01/09 06:07:43;;;;;;;8.48;3.15;;;-4.30;99.90;;;;;;5061426;28;20044;-60
2024/01/09 06:10:09;;;;;;;7.80;3.22;;;-4.70;99.90;;;;;;5061654;28;20083;-60
2024/01/09 06:12:35;;;;;;;8.30;2.70;;;-4.30;99.90;;;;;;5079740;28;20550;-60
2024/01/09 06:15:01;;;;;;;8.90;2.80;;;-4.60;99.90;;;;;;5079728;28;20037;-60
2024/01/09 06:17:27;;;;;;;9.20;3.65;;;-4.30;99.90;;;;;;5061508;28;20407;-60
2024/01/09 06:19:53;;;;;;;8.18;3.03;;;-4.60;99.90;;;;;;5079678;28;20103;-60
2024/01/09 06:22:18;;;;;;;10.13;2.85;;;-4.30;99.90;;;;;;5059210;28;20048;-60
2024/01/09 06:24:44;;;;;;;8.02;3.38;;;-4.30;99.90;;;;;;5057358;28;20143;-60
2024/01/09 06:27:10;;;;;;;7.38;2.92;;;-4.70;99.90;;;;;;5075210;28;20071;-60
2024/01/09 06:29:36;;;;;;;9.25;3.05;;;-4.80;99.90;;;;;;5075223;28;20041;-60
2024/01/09 06:32:02;;;;;;;9.02;2.83;;;-4.50;99.90;;;;;;5075346;28;20447;-60
2024/01/09 06:34:28;;;;;;;10.27;3.28;;;-4.40;99.90;;;;;;5074843;28;20072;-60
2024/01/09 06:36:53;;;;;;;7.75;3.05;;;-4.80;99.90;;;;;;5075311;28;20048;-60
2024/01/09 06:39:19;;;;;;;10.38;3.35;;;-4.60;99.90;;;;;;5074980;28;20055;-59
2024/01/09 06:41:45;;;;;;;6.47;3.25;;;-4.40;99.90;;;;;;5056189;28;20055;-60
2024/01/09 06:44:10;;;;;;;10.20;3.05;;;-4.80;99.90;;;;;;5074564;28;20127;-60
2024/01/09 06:46:36;;;;;;;8.27;3.10;;;-4.40;99.90;;;;;;5074394;28;20412;-59
2024/01/09 06:49:02;;;;;;;9.73;3.38;;;-4.80;99.90;;;;;;5075230;28;20156;-60
2024/01/09 06:51:29;;;;;;;8.35;3.08;;;-4.70;99.90;;;;;;5053370;28;20251;-60
2024/01/09 06:53:55;;;;;;;8.48;3.70;;;-4.80;99.90;;;;;;5036872;28;20052;-60
2024/01/09 06:56:21;;;;;;;9.18;2.88;;;-4.60;99.90;;;;;;5054537;28;20049;-60
2024/01/09 06:58:47;;;;;;;8.07;3.55;;;-4.50;99.90;;;;;;5036120;28;20522;-60
2024/01/09 07:01:12;;;;;;;7.75;3.55;;;-4.40;99.90;;;;;;5054238;28;20114;-59
2024/01/09 07:03:38;;;;;;;7.38;3.08;;;-4.40;99.90;;;;;;5053576;28;20049;-60
2024/01/09 07:06:04;;;;;;;9.63;3.58;;;-4.60;99.90;;;;;;5052445;28;20052;-60
2024/01/09 07:08:30;;;;;;;8.15;3.28;;;-4.50;99.90;;;;;;5036681;28;20319;-60
2024/01/09 07:10:57;;;;;;;7.90;3.15;;;-4.50;99.90;;;;;;5061497;28;20950;-60
2024/01/09 07:13:23;;;;;;;8.93;3.40;;;-4.70;99.90;;;;;;5074146;28;20060;-60
2024/01/09 07:15:49;;;;;;;9.95;4.85;;;-4.60;99.90;;;;;;5039873;28;20378;-60
2024/01/09 07:18:15;;;;;;;8.68;3.35;;;-4.70;99.90;;;;;;5039831;28;20060;-60
2024/01/09 07:20:42;;;;;;;11.02;4.50;;;-4.70;99.90;;;;;;5056310;28;20589;-60
2024/01/09 07:23:07;;;;;;;10.40;3.95;;;-4.60;99.90;;;;;;5074051;28;20057;-60
2024/01/09 07:25:33;;;;;;;10.68;4.13;;;-4.60;99.90;;;;;;5074345;28;20113;-60
2024/01/09 07:27:59;;;;;;;11.38;4.63;;;-4.90;99.90;;;;;;5074444;28;20040;-60
2024/01/09 07:30:25;;;;;;;12.45;4.85;;;-4.60;99.90;;;;;;5056117;28;20496;-60
2024/01/09 07:32:50;;;;;;;12.85;4.63;;;-4.60;99.90;;;;;;5055987;28;20048;-60
2024/01/09 07:35:16;;;;;;;8.48;3.47;;;-4.60;99.90;;;;;;5072177;28;20044;-60
2024/01/09 07:37:42;;;;;;;10.18;4.13;;;-4.60;99.90;;;;;;5074421;28;20056;-60
2024/01/09 07:40:09;;;;;;;8.23;4.22;;;-4.60;99.90;;;;;;5056028;28;20048;-60
2024/01/09 07:42:35;;;;;;;9.10;3.75;;;-4.70;99.90;;;;;;5056901;28;20511;-60
2024/01/09 07:45:01;;;;;;;11.73;4.03;;;-4.90;99.90;;;;;;5074716;28;20044;-60
2024/01/09 07:47:26;;;;;;;7.88;3.13;;;-4.80;99.90;;;;;;5073893;28;20104;-60
2024/01/09 07:49:52;;;;;;;10.25;3.10;;;-4.90;99.90;;;;;;5077413;28;20052;-60
2024/01/09 07:52:19;;;;;;;8.00;3.83;;;-4.70;99.90;;;;;;5043654;28;20044;-60
2024/01/09 07:54:44;;;;;;;8.40;3.50;;;-4.70;99.90;;;;;;5078138;28;20044;-60
2024/01/09 07:57:10;;;;;;;8.75;3.58;;;-4.80;99.90;;;;;;5078287;28;20053;-60
2024/01/09 07:59:36;;;;;;;7.18;2.97;;;-4.60;99.90;;;;;;5077996;28;20104;-60
2024/01/09 08:02:01;;;;;;;8.65;3.95;;;-4.70;99.90;;;;;;5077949;28;20064;-60
2024/01/09 08:04:30;;;;;;;8.88;3.25;;;-4.70;99.90;;;;;;5077926;28;20052;-60
2024/01/09 08:06:56;;;;;;;11.00;4.05;;;-4.60;99.90;;;;;;5042962;28;20047;-60
2024/01/09 08:09:21;;;;;;;10.75;3.35;;;-4.90;99.90;;;;;;5078159;28;20131;-61
2024/01/09 08:11:47;;;;;;;9.82;3.30;;;-4.70;99.90;;;;;;5076670;28;20051;-60
2024/01/09 08:14:14;;;;;;;8.00;3.30;;;-4.80;99.90;;;;;;5078143;28;20047;-61
2024/01/09 08:16:40;;;;;;;10.98;3.70;;;-4.70;99.90;;;;;;5077846;28;20056;-60
2024/01/09 08:19:06;;;;;;;10.10;4.10;;;-4.80;99.90;;;;;;5078081;28;20119;-60
2024/01/09 08:21:34;;;;;;;11.32;4.32;;;-4.80;99.90;;;;;;5060220;28;20048;-60
2024/01/09 08:24:00;;;;;;;11.05;4.18;;;-4.80;99.90;;;;;;5077994;28;20479;-60
2024/01/09 08:26:25;;;;;;;10.10;4.63;;;-4.40;99.90;;;;;;5076460;28;20307;-60
2024/01/09 08:28:51;;;;;;;10.98;4.65;;;-4.70;99.90;;;;;;5077819;28;20620;-60
2024/01/09 08:31:17;;;;;;;9.27;4.03;;;-4.40;99.90;;;;;;5077699;28;20040;-61
2024/01/09 08:33:43;;;;;;;9.40;4.35;;;-4.60;99.90;;;;;;5077710;28;20143;-60
2024/01/09 08:36:08;;;;;;;12.23;4.13;;;-4.50;99.90;;;;;;5077274;28;20558;-61
2024/01/09 08:38:34;;;;;;;10.85;4.30;;;-4.50;99.90;;;;;;5042948;28;20530;-60
2024/01/09 08:41:02;;;;;;;7.70;3.83;;;-4.40;99.90;;;;;;5059931;28;20041;-61
2024/01/09 08:43:28;;;;;;;9.55;3.78;;;-4.50;99.90;;;;;;5077868;28;20055;-60
2024/01/09 08:45:54;;;;;;;7.65;3.55;;;-4.40;99.90;;;;;;5059075;28;20079;-60
2024/01/09 08:48:19;;;;;;;8.93;3.40;;;-4.50;99.90;;;;;;5077439;28;20052;-60
2024/01/09 08:50:45;;;;;;;9.65;3.53;;;-4.40;99.90;;;;;;5059392;28;20084;-60
2024/01/09 08:53:11;;;;;;;7.80;2.90;;;-4.50;99.90;;;;;;5077475;28;20040;-60
2024/01/09 08:55:37;;;;;;;10.90;3.75;;;-4.40;99.90;;;;;;5080803;28;20044;-60
2024/01/09 08:58:03;;;;;;;8.63;3.50;;;-4.30;99.90;;;;;;5081050;28;20112;-61
2024/01/09 09:00:28;;;;;;;8.05;3.63;;;-4.10;99.90;;;;;;5081146;28;20044;-60
2024/01/09 09:02:55;;;;;;;10.60;3.55;;;-4.20;99.90;;;;;;5062626;28;20127;-60
2024/01/09 09:05:20;;;;;;;8.45;2.80;;;-4.00;99.90;;;;;;5079965;28;20037;-62
2024/01/09 09:07:46;;;;;;;8.32;3.22;;;-3.90;99.90;;;;;;5080534;28;20335;-61
2024/01/09 09:10:12;;;;;;;10.73;3.42;;;-3.90;99.90;;;;;;5079652;28;20053;-60
2024/01/09 09:12:37;;;;;;;6.65;2.88;;;-3.80;99.90;;;;;;5062686;28;20125;-61
2024/01/09 09:15:03;;;;;;;8.57;3.92;;;-3.80;99.90;;;;;;5079481;28;20037;-61
2024/01/09 09:17:30;;;;;;;8.82;3.05;;;-4.00;99.90;;;;;;5079642;28;20049;-61
2024/01/09 09:19:57;;;;;;;9.52;3.60;;;-3.90;99.90;;;;;;5062568;28;20072;-60
2024/01/09 09:22:25;;;;;;;7.60;3.25;;;-3.80;99.90;;;;;;5080547;28;20102;-61
2024/01/09 09:24:55;;;;;;;10.57;3.85;;;-3.70;99.90;;;;;;5080505;28;20240;-60
2024/01/09 09:27:21;;;;;;;8.43;3.13;;;-3.70;99.90;;;;;;5080825;28;20041;-60
2024/01/09 09:29:47;;;;;;;10.43;3.10;;;-3.80;99.90;;;;;;5062786;28;20049;-61
2024/01/09 09:32:13;;;;;;;9.10;3.50;;;-3.60;99.90;;;;;;5079458;28;20048;-60
2024/01/09 09:34:42;;;;;;;9.63;3.53;;;-3.60;99.90;;;;;;5062230;28;20079;-60
2024/01/09 09:37:08;;;;;;;8.52;3.58;;;-3.60;99.90;;;;;;5080426;28;20045;-60
2024/01/09 09:39:34;;;;;;;9.40;3.90;;;-3.50;99.90;;;;;;5080151;28;20052;-60
2024/01/09 09:42:00;;;;;;;7.57;3.90;;;-3.60;99.90;;;;;;5080322;28;20090;-60
2024/01/09 09:44:27;;;;;;;11.23;4.30;;;-3.60;99.90;;;;;;5080141;28;20514;-61
2024/01/09 09:46:54;;;;;;;8.65;3.90;;;-3.60;99.90;;;;;;5062294;28;20045;-61
2024/01/09 09:49:23;;;;;;;11.70;4.82;;;-3.30;99.90;;;;;;5061945;28;20037;-61
2024/01/09 09:51:54;;;;;;;9.18;3.85;;;-3.50;99.90;;;;;;5062339;28;20040;-61
2024/01/09 09:54:22;;;;;;;9.75;3.75;;;-3.30;99.90;;;;;;5079604;28;20048;-61
2024/01/09 09:56:47;;;;;;;8.07;3.33;;;-3.30;99.90;;;;;;5061292;28;20039;-60
2024/01/09 09:59:14;;;;;;;10.10;3.83;;;-3.20;99.90;;;;;;5078653;28;20032;-60
2024/01/09 10:01:41;;;;;;;9.40;3.95;;;-3.20;99.90;;;;;;5078997;28;20453;-60
2024/01/09 10:04:51;;;;;;;8.50;3.72;;;-3.30;99.90;;;;;;5079782;28;20048;-61
2024/01/09 10:07:20;;;;;;;10.75;4.53;;;-3.30;99.90;;;;;;5050125;28;20068;-61
2024/01/09 10:09:51;;;;;;;8.98;3.88;;;-3.20;99.90;;;;;;5079279;28;20032;-61
2024/01/09 10:12:23;;;;;;;7.47;3.22;;;-3.10;99.90;;;;;;5079187;28;20044;-61
2024/01/09 10:15:09;;;;;;;8.10;3.35;;;-3.20;99.90;;;;;;5080088;28;20409;-60
2024/01/09 10:17:44;;;;;;;7.75;3.08;;;-3.20;99.90;;;;;;5061656;28;20045;-61
2024/01/09 10:20:12;;;;;;;7.63;3.03;;;-3.00;99.90;;;;;;5079056;28;20048;-61
2024/01/09 10:22:38;;;;;;;7.35;3.05;;;-2.80;99.90;;;;;;5077905;28;20524;-61
2024/01/09 10:25:06;;;;;;;8.82;3.42;;;-2.90;99.90;;;;;;5078023;28;20072;-61
2024/01/09 10:27:36;;;;;;;8.90;3.03;;;-2.90;99.90;;;;;;5079275;28;20505;-61
2024/01/09 10:30:03;;;;;;;8.57;3.22;;;-2.90;99.90;;;;;;5079623;28;20051;-61
2024/01/09 10:32:31;;;;;;;9.88;3.22;;;-2.90;99.90;;;;;;5079674;28;20678;-61
2024/01/09 10:34:57;;;;;;;9.77;3.42;;;-2.30;99.90;;;;;;5060777;28;20055;-61
2024/01/09 10:37:24;;;;;;;7.53;3.20;;;-2.70;99.90;;;;;;5079280;28;20086;-61
2024/01/09 10:39:51;;;;;;;6.32;2.75;;;-2.60;99.90;;;;;;5078988;28;20090;-61
2024/01/09 10:42:17;;;;;;;7.78;2.88;;;-2.60;99.90;;;;;;5078983;28;20131;-61
2024/01/09 10:44:47;;;;;;;7.75;3.00;;;-2.50;99.90;;;;;;5044803;28;20090;-61
2024/01/09 10:47:14;;;;;;;7.28;3.17;;;-2.60;99.90;;;;;;5079145;28;20046;-61
2024/01/09 10:49:42;;;;;;;7.93;2.92;;;-2.60;99.90;;;;;;5028047;28;20039;-61
2024/01/09 10:52:17;;;;;;;7.00;3.10;;;-2.60;99.90;;;;;;5078930;28;20032;-61
2024/01/09 10:54:44;;;;;;;8.20;2.90;;;-2.50;99.90;;;;;;5079246;28;20096;-61
2024/01/09 10:57:17;;;;;;;6.22;2.65;;;-2.50;99.90;;;;;;5060600;28;20041;-61
2024/01/09 10:59:44;;;;;;;9.27;3.42;;;-2.40;99.90;;;;;;5078065;28;20067;-61
2024/01/09 11:02:16;;;;;;;8.20;3.10;;;-2.40;99.90;;;;;;5078183;28;20040;-61
2024/01/09 11:04:43;;;;;;;7.32;3.05;;;-2.30;99.90;;;;;;5060976;28;20080;-61
2024/01/09 11:07:16;;;;;;;6.82;3.28;;;-2.20;99.90;;;;;;5078766;28;20076;-61
2024/01/09 11:09:46;;;;;;;7.45;3.00;;;-2.20;99.90;;;;;;5078626;28;20060;-60
2024/01/09 11:12:19;;;;;;;7.45;3.20;;;-2.20;99.90;;;;;;5077262;28;20036;-61
2024/01/09 11:14:52;;;;;;;7.68;3.05;;;-2.10;99.90;;;;;;5060903;28;20060;-60
2024/01/09 11:17:20;;;;;;;8.07;3.17;;;-2.10;99.90;;;;;;5078987;28;20036;-61
2024/01/09 11:19:46;;;;;;;9.02;2.78;;;-2.00;99.90;;;;;;5077501;28;20131;-61
2024/01/09 11:22:21;;;;;;;8.10;3.33;;;-1.90;99.90;;;;;;5060559;28;20075;-61
2024/01/09 11:24:52;;;;;;;8.10;2.95;;;-1.90;99.90;;;;;;5076907;28;20048;-61
2024/01/09 11:27:18;;;;;;;6.85;2.72;;;-1.90;99.90;;;;;;5060444;28;20052;-61
2024/01/09 11:29:51;;;;;;;8.68;3.40;;;-1.90;99.90;;;;;;5078861;28;20069;-61
2024/01/09 11:32:17;;;;;;;8.10;3.55;;;-1.80;99.90;;;;;;5078698;28;20044;-61
2024/01/09 11:34:47;;;;;;;8.20;2.65;;;-1.70;99.90;;;;;;5060627;28;20041;-61
2024/01/09 11:37:23;;;;;;;8.60;3.05;;;-1.70;99.90;;;;;;5078618;28;20041;-61
2024/01/09 11:39:49;;;;;;;7.20;3.13;;;-1.60;99.90;;;;;;5078152;28;20046;-61
2024/01/09 11:42:16;;;;;;;7.80;3.13;;;-1.60;99.90;;;;;;5044083;28;20052;-60
2024/01/09 11:44:41;;;;;;;9.60;3.35;;;-1.60;99.90;;;;;;5078640;28;20048;-61
2024/01/09 11:47:07;;;;;;;7.93;3.25;;;-1.50;99.90;;;;;;5060480;28;20056;-61
2024/01/09 11:49:33;;;;;;;8.35;3.50;;;-1.50;99.90;;;;;;5027392;28;20124;-61
2024/01/09 11:51:59;;;;;;;7.47;2.97;;;-1.50;99.90;;;;;;5060500;28;20045;-60
2024/01/09 11:54:25;;;;;;;7.55;2.95;;;-1.40;99.90;;;;;;5078191;28;20112;-61
2024/01/09 11:56:51;;;;;;;8.15;3.30;;;-1.40;99.90;;;;;;5077753;28;20078;-61
2024/01/09 11:59:20;;;;;;;8.43;3.20;;;-1.30;99.90;;;;;;5076507;28;20036;-61
2024/01/09 12:01:46;;;;;;;8.00;3.00;;;-1.40;99.90;;;;;;5077869;28;20066;-60
2024/01/09 12:04:12;;;;;;;9.60;2.95;;;-1.40;99.90;;;;;;5077669;28;20036;-61
2024/01/09 12:06:38;;;;;;;8.65;2.97;;;-1.40;99.90;;;;;;5060129;28;20036;-61
2024/01/09 12:09:04;;;;;;;7.85;3.45;;;-1.40;99.90;;;;;;5078048;28;20036;-60
2024/01/09 12:11:30;;;;;;;8.60;2.95;;;-1.40;99.90;;;;;;5078051;28;20096;-61
2024/01/09 12:14:03;;;;;;;7.45;3.00;;;-1.40;99.90;;;;;;5060075;28;20064;-61
2024/01/09 12:16:30;;;;;;;8.38;3.35;;;-1.40;99.90;;;;;;5060372;28;20041;-61
2024/01/09 12:18:56;;;;;;;8.50;3.10;;;-1.40;99.90;;;;;;5076958;28;20041;-61
2024/01/09 12:21:28;;;;;;;8.63;3.47;;;-1.40;99.90;;;;;;5056563;28;20471;-61
2024/01/09 12:23:56;;;;;;;8.07;3.30;;;-1.40;99.90;;;;;;5058334;28;20045;-61
2024/01/09 12:26:23;;;;;;;8.23;2.78;;;-1.40;99.90;;;;;;5040127;28;20543;-61
2024/01/09 12:28:50;;;;;;;7.57;3.08;;;-1.40;99.90;;;;;;5058037;28;20103;-61
2024/01/09 12:31:18;;;;;;;7.43;2.95;;;-1.40;99.90;;;;;;5057972;28;20123;-61
2024/01/09 12:33:47;;;;;;;8.40;3.10;;;-1.40;99.90;;;;;;5059763;28;20041;-60
2024/01/09 12:36:14;;;;;;;7.88;2.72;;;-1.40;99.90;;;;;;5063182;28;20041;-61
2024/01/09 12:38:41;;;;;;;6.97;2.92;;;-1.30;99.90;;;;;;5063821;28;20044;-61
2024/01/09 12:41:06;;;;;;;6.20;2.45;;;-1.30;99.90;;;;;;5081794;28;20098;-61